Time;durP1;ratioP1;P1;durP2;ratioP2;P2;SDS_P1;SDS_P2;PMS_P1;PMS_P2;Temp;Humidity;BMP_temperature;BMP_pressure;BME280_temperature;BME280_humidity;BME280_pressure;Samples;Min_cycle;Max_cycle;Signal;HPM_P1;HPM_P2
2022/10/21 00:01:18;;;;;;;10.20;9.10;;;8.50;99.90;;;;;;5055297;28;20207;-80
2022/10/21 00:03:46;;;;;;;13.20;8.67;;;8.40;99.90;;;;;;5054950;28;20465;-80
2022/10/21 00:06:12;;;;;;;11.43;9.40;;;8.40;99.90;;;;;;5054640;28;20428;-79
2022/10/21 00:08:39;;;;;;;10.18;9.05;;;8.30;99.90;;;;;;5054939;28;20260;-79
2022/10/21 00:11:08;;;;;;;15.68;8.48;;;8.30;99.90;;;;;;5054662;28;20680;-80
2022/10/21 00:13:37;;;;;;;11.77;8.45;;;8.30;99.90;;;;;;5054879;28;20219;-80
2022/10/21 00:16:07;;;;;;;9.73;7.70;;;8.30;99.90;;;;;;5055358;28;20551;-79
2022/10/21 00:18:36;;;;;;;12.43;7.80;;;8.40;99.90;;;;;;5055604;28;20230;-79
2022/10/21 00:21:07;;;;;;;8.87;7.97;;;8.30;99.90;;;;;;5054877;28;20203;-79
2022/10/21 00:23:34;;;;;;;14.87;8.50;;;8.40;99.90;;;;;;5054729;28;20500;-79
2022/10/21 00:26:01;;;;;;;9.98;7.97;;;8.40;99.90;;;;;;5054902;28;20485;-79
2022/10/21 00:28:28;;;;;;;12.43;8.07;;;8.30;99.90;;;;;;5054874;28;20211;-79
2022/10/21 00:30:55;;;;;;;13.80;9.02;;;8.30;99.90;;;;;;5054727;28;20615;-80
2022/10/21 00:33:22;;;;;;;8.90;7.97;;;8.40;99.90;;;;;;5054681;28;20227;-79
2022/10/21 00:35:52;;;;;;;10.52;8.65;;;8.40;99.90;;;;;;5054630;28;20195;-79
2022/10/21 00:38:21;;;;;;;13.13;8.52;;;8.50;99.90;;;;;;5057560;28;20290;-79
2022/10/21 00:40:47;;;;;;;9.60;7.57;;;8.50;99.90;;;;;;5058648;28;20203;-79
2022/10/21 00:43:14;;;;;;;9.87;7.33;;;8.40;99.90;;;;;;5060075;28;20440;-79
2022/10/21 00:45:42;;;;;;;19.33;8.23;;;8.50;99.90;;;;;;5059514;28;20478;-79
2022/10/21 00:48:14;;;;;;;10.77;8.20;;;8.40;99.90;;;;;;5059625;28;20456;-78
2022/10/21 00:50:48;;;;;;;9.23;7.70;;;8.50;99.90;;;;;;5059156;28;20461;-80
2022/10/21 00:53:17;;;;;;;14.90;7.55;;;8.50;99.90;;;;;;5057969;28;20242;-80
2022/10/21 00:55:48;;;;;;;12.00;8.53;;;8.50;99.90;;;;;;5057938;28;20187;-77
2022/10/21 00:58:18;;;;;;;11.00;8.30;;;8.60;99.90;;;;;;5057830;28;20456;-78
2022/10/21 01:00:45;;;;;;;12.73;8.40;;;8.60;99.90;;;;;;5057578;28;20489;-80
2022/10/21 01:03:12;;;;;;;14.70;9.43;;;8.60;99.90;;;;;;5057603;28;20230;-80
2022/10/21 01:05:41;;;;;;;12.60;9.23;;;8.90;99.90;;;;;;5058320;28;21049;-79
2022/10/21 01:08:07;;;;;;;10.80;8.57;;;9.10;99.90;;;;;;5058999;28;20450;-79
2022/10/21 01:10:34;;;;;;;15.37;9.70;;;8.40;99.90;;;;;;5059169;28;20253;-80
2022/10/21 01:13:22;;;;;;;16.10;9.70;;;8.90;99.90;;;;;;5058643;28;20465;-80
2022/10/21 01:15:55;;;;;;;10.30;8.23;;;8.60;99.90;;;;;;5061855;28;20433;-79
2022/10/21 01:18:30;;;;;;;10.77;7.67;;;8.60;99.90;;;;;;5063690;28;20206;-79
2022/10/21 01:21:07;;;;;;;15.10;8.52;;;8.60;99.90;;;;;;5064761;28;20430;-79
2022/10/21 01:24:03;;;;;;;10.03;7.30;;;8.60;99.90;;;;;;5061408;28;20234;-79
2022/10/21 01:26:57;;;;;;;9.27;8.30;;;8.60;99.90;;;;;;5063768;28;20836;-79
2022/10/21 01:30:08;;;;;;;10.00;8.40;;;8.50;99.90;;;;;;5067587;28;20426;-78
2022/10/21 01:33:01;;;;;;;11.60;7.73;;;8.60;99.90;;;;;;5059898;28;20437;-79
2022/10/21 01:35:37;;;;;;;13.57;8.17;;;8.50;99.90;;;;;;5057991;28;20434;-79
2022/10/21 01:38:11;;;;;;;11.83;8.10;;;8.60;99.90;;;;;;5069131;28;20451;-79
2022/10/21 01:40:46;;;;;;;9.25;8.18;;;8.50;99.90;;;;;;5074296;28;20433;-78
2022/10/21 01:43:19;;;;;;;11.27;8.13;;;9.10;99.90;;;;;;5067738;28;20227;-80
2022/10/21 01:45:50;;;;;;;17.98;9.02;;;8.50;99.90;;;;;;5058155;28;20532;-79
2022/10/21 01:48:21;;;;;;;9.00;7.85;;;8.60;99.90;;;;;;5056429;28;20203;-79
2022/10/21 01:50:53;;;;;;;10.80;7.90;;;8.50;99.90;;;;;;5057939;28;20222;-79
2022/10/21 01:53:23;;;;;;;11.82;8.57;;;8.50;99.90;;;;;;5060276;28;20477;-78
2022/10/21 01:55:51;;;;;;;10.07;8.27;;;8.60;99.90;;;;;;5062751;28;20188;-79
2022/10/21 01:58:21;;;;;;;13.00;8.52;;;8.60;99.90;;;;;;5059074;28;20203;-79
2022/10/21 02:00:49;;;;;;;10.93;8.73;;;8.50;99.90;;;;;;5060676;28;20495;-79
2022/10/21 02:03:23;;;;;;;10.83;7.67;;;8.60;99.90;;;;;;5060275;28;20519;-79
2022/10/21 02:05:49;;;;;;;11.15;8.32;;;8.60;99.90;;;;;;5059716;28;20461;-79
2022/10/21 02:08:16;;;;;;;12.63;9.67;;;8.60;99.90;;;;;;5059980;28;20214;-78
2022/10/21 02:10:46;;;;;;;13.85;9.05;;;8.60;99.90;;;;;;5062245;28;20409;-77
2022/10/21 02:13:17;;;;;;;10.63;8.90;;;8.60;99.90;;;;;;5063659;28;20226;-77
2022/10/21 02:15:44;;;;;;;12.90;8.88;;;8.60;99.90;;;;;;5063850;28;20404;-79
2022/10/21 02:18:19;;;;;;;13.60;9.70;;;8.70;99.90;;;;;;5057210;28;20203;-80
2022/10/21 02:20:52;;;;;;;12.57;8.43;;;8.60;99.90;;;;;;5057530;28;20433;-80
2022/10/21 02:23:25;;;;;;;11.43;8.70;;;8.60;99.90;;;;;;5057930;28;20553;-80
2022/10/21 02:25:52;;;;;;;11.52;9.90;;;8.70;99.90;;;;;;5058709;28;20462;-80
2022/10/21 02:28:19;;;;;;;16.53;9.90;;;8.70;99.90;;;;;;5058818;28;20203;-80
2022/10/21 02:30:59;;;;;;;12.37;9.00;;;8.70;99.90;;;;;;5064011;28;20445;-78
2022/10/21 02:33:37;;;;;;;11.13;9.30;;;8.80;99.90;;;;;;5059268;28;20440;-78
2022/10/21 02:36:12;;;;;;;13.07;9.10;;;8.80;99.90;;;;;;5056707;28;20540;-81
2022/10/21 02:38:44;;;;;;;13.47;10.40;;;8.80;99.90;;;;;;5056748;28;20858;-80
2022/10/21 02:41:13;;;;;;;12.53;8.70;;;8.80;99.90;;;;;;5063095;28;20427;-79
2022/10/21 02:43:45;;;;;;;10.17;8.43;;;8.80;99.90;;;;;;5064881;28;20458;-79
2022/10/21 02:46:14;;;;;;;11.97;8.70;;;8.90;99.90;;;;;;5060144;28;20471;-80
2022/10/21 02:48:45;;;;;;;11.97;10.00;;;8.80;99.90;;;;;;5058741;28;20474;-79
2022/10/21 02:51:14;;;;;;;14.80;9.63;;;8.80;99.90;;;;;;5059443;28;20437;-79
2022/10/21 02:53:40;;;;;;;12.27;9.10;;;8.90;99.90;;;;;;5056487;28;20451;-79
2022/10/21 02:56:08;;;;;;;9.67;8.30;;;8.90;99.90;;;;;;5056589;28;20499;-78
2022/10/21 02:58:35;;;;;;;11.50;8.60;;;8.90;99.90;;;;;;5055908;28;20456;-79
2022/10/21 03:01:02;;;;;;;10.40;8.20;;;8.90;99.90;;;;;;5054508;28;20449;-78
2022/10/21 03:03:29;;;;;;;13.00;9.93;;;8.90;99.90;;;;;;5054695;28;20867;-79
2022/10/21 03:05:56;;;;;;;14.40;10.30;;;9.00;99.90;;;;;;5054307;28;20573;-79
2022/10/21 03:08:24;;;;;;;15.80;8.70;;;9.00;99.90;;;;;;5054433;28;20503;-79
2022/10/21 03:10:51;;;;;;;13.57;10.02;;;8.90;99.90;;;;;;5054278;28;20446;-79
2022/10/21 03:13:17;;;;;;;12.73;9.40;;;8.90;99.90;;;;;;5054445;28;20274;-78
2022/10/21 03:15:44;;;;;;;10.83;8.93;;;8.90;99.90;;;;;;5054211;28;20445;-78
2022/10/21 03:18:11;;;;;;;10.87;9.10;;;8.90;99.90;;;;;;5053888;28;20449;-78
2022/10/21 03:20:38;;;;;;;11.00;8.90;;;9.00;99.90;;;;;;5054121;28;20504;-78
2022/10/21 03:23:04;;;;;;;14.77;9.23;;;9.00;99.90;;;;;;5055755;28;20448;-78
2022/10/21 03:25:32;;;;;;;13.67;10.00;;;9.00;99.90;;;;;;5054843;28;20885;-79
2022/10/21 03:27:59;;;;;;;11.97;9.27;;;9.00;99.90;;;;;;5055199;28;20458;-80
2022/10/21 03:30:26;;;;;;;11.10;9.67;;;9.00;99.90;;;;;;5054864;28;20445;-79
2022/10/21 03:32:52;;;;;;;13.17;10.10;;;8.80;99.90;;;;;;5054492;28;20449;-80
2022/10/21 03:35:19;;;;;;;10.93;9.17;;;9.00;99.90;;;;;;5055021;28;20445;-81
2022/10/21 03:37:45;;;;;;;13.60;9.70;;;9.00;99.90;;;;;;5054940;28;20798;-80
2022/10/21 03:40:12;;;;;;;11.70;10.10;;;9.00;99.90;;;;;;5055193;28;20944;-79
2022/10/21 03:42:40;;;;;;;14.07;9.60;;;9.10;99.90;;;;;;5054974;28;20495;-79
2022/10/21 03:45:08;;;;;;;17.10;9.43;;;9.00;99.90;;;;;;5055302;28;20885;-79
2022/10/21 03:47:35;;;;;;;12.90;9.80;;;9.10;99.90;;;;;;5054999;28;20497;-79
2022/10/21 03:50:01;;;;;;;15.67;10.60;;;9.20;99.90;;;;;;5055183;28;20203;-79
2022/10/21 03:52:28;;;;;;;11.53;10.00;;;9.10;99.90;;;;;;5054881;28;20462;-80
2022/10/21 03:54:57;;;;;;;13.60;11.43;;;;;;;;;;5094925;22;20485;-85
2022/10/21 03:57:39;;;;;;;13.10;10.37;;;;;;;;;;5067736;28;20409;-84
2022/10/21 04:00:24;;;;;;;12.47;9.60;;;;;;;;;;5069192;28;20525;-86
2022/10/21 04:03:20;;;;;;;;;;;;;;;;;;;;;
2022/10/21 04:06:08;;;;;;;12.40;10.17;;;9.10;99.90;;;;;;5050919;28;20492;-85
2022/10/21 04:08:40;;;;;;;14.37;10.77;;;;;;;;;;5044600;28;20462;-85
2022/10/21 04:11:17;;;;;;;15.83;10.87;;;9.40;99.90;;;;;;5051912;28;20409;-85
2022/10/21 04:13:44;;;;;;;11.53;9.83;;;9.20;99.90;;;;;;5054756;28;20466;-84
2022/10/21 04:16:16;;;;;;;14.43;10.80;;;9.20;99.90;;;;;;5056464;28;20443;-85
2022/10/21 04:18:43;;;;;;;10.57;8.87;;;9.20;99.90;;;;;;5054224;28;20441;-84
2022/10/21 04:21:10;;;;;;;15.93;10.27;;;9.10;99.90;;;;;;5054446;28;20438;-85
2022/10/21 04:23:37;;;;;;;13.43;10.77;;;9.10;99.90;;;;;;5054389;28;20984;-85
2022/10/21 04:26:05;;;;;;;12.73;11.13;;;9.10;99.90;;;;;;5059005;28;20484;-83
2022/10/21 04:28:32;;;;;;;13.13;10.60;;;9.20;99.90;;;;;;5061969;28;20498;-82
2022/10/21 04:30:59;;;;;;;12.00;10.20;;;9.20;99.90;;;;;;5057106;28;20438;-86
2022/10/21 04:33:27;;;;;;;15.13;11.60;;;8.90;99.90;;;;;;5061191;28;20442;-84
2022/10/21 04:35:54;;;;;;;18.57;12.30;;;9.20;99.90;;;;;;5061666;28;20437;-83
2022/10/21 04:38:21;;;;;;;14.50;11.80;;;9.20;99.90;;;;;;5059247;28;20465;-84
2022/10/21 04:40:54;;;;;;;14.63;11.83;;;9.20;99.90;;;;;;5050794;28;20417;-85
2022/10/21 04:43:20;;;;;;;16.50;11.83;;;8.90;99.90;;;;;;5051646;28;20416;-84
2022/10/21 04:45:47;;;;;;;14.57;12.03;;;9.10;99.90;;;;;;5051721;28;20478;-84
2022/10/21 04:48:14;;;;;;;16.07;12.03;;;9.10;99.90;;;;;;5051953;28;20426;-85
2022/10/21 04:50:42;;;;;;;14.27;10.60;;;9.10;99.90;;;;;;5050783;28;20417;-85
2022/10/21 04:53:08;;;;;;;16.80;11.60;;;9.10;99.90;;;;;;5051563;28;20438;-86
2022/10/21 04:55:38;;;;;;;14.15;11.18;;;9.10;99.90;;;;;;5051146;28;20440;-84
2022/10/21 04:58:04;;;;;;;15.33;11.30;;;9.10;99.90;;;;;;5051819;28;20646;-87
2022/10/21 05:00:31;;;;;;;14.10;12.10;;;9.20;99.90;;;;;;5051553;28;20448;-85
2022/10/21 05:02:58;;;;;;;13.63;11.30;;;9.10;99.90;;;;;;5052214;28;20424;-85
2022/10/21 05:05:25;;;;;;;15.50;11.60;;;9.20;99.90;;;;;;5052494;28;20463;-85
2022/10/21 05:07:53;;;;;;;12.77;9.90;;;9.10;99.90;;;;;;5052624;28;20432;-86
2022/10/21 05:10:21;;;;;;;15.00;11.53;;;;;;;;;;5053165;28;20191;-85
2022/10/21 05:12:48;;;;;;;13.70;10.45;;;9.20;99.90;;;;;;5053593;28;20425;-86
2022/10/21 05:15:14;;;;;;;14.83;11.63;;;9.10;99.90;;;;;;5056561;28;20224;-85
2022/10/21 05:17:41;;;;;;;12.63;10.30;;;9.40;99.90;;;;;;5056880;28;20449;-86
2022/10/21 05:20:09;;;;;;;14.43;11.30;;;8.60;99.90;;;;;;5054436;28;20425;-86
2022/10/21 05:22:36;;;;;;;14.07;10.17;;;9.20;99.90;;;;;;5055465;28;20442;-85
2022/10/21 05:25:05;;;;;;;14.80;10.90;;;9.30;99.90;;;;;;5057692;28;20521;-86
2022/10/21 05:27:32;;;;;;;15.70;11.07;;;9.30;99.90;;;;;;5053125;28;20452;-86
2022/10/21 05:29:58;;;;;;;13.27;10.87;;;9.30;99.90;;;;;;5051571;28;20425;-86
2022/10/21 05:32:25;;;;;;;15.33;11.00;;;9.30;99.90;;;;;;5051832;28;20482;-85
2022/10/21 05:34:52;;;;;;;13.53;11.17;;;9.40;99.90;;;;;;5051219;28;20445;-86
2022/10/21 05:37:19;;;;;;;12.43;11.07;;;9.70;99.90;;;;;;5051301;28;20417;-86
2022/10/21 05:39:45;;;;;;;19.03;11.13;;;9.40;99.90;;;;;;5058097;28;20454;-86
2022/10/21 05:42:13;;;;;;;16.80;12.00;;;9.40;99.90;;;;;;5059952;28;20473;-85
2022/10/21 05:44:40;;;;;;;12.73;10.43;;;9.50;99.90;;;;;;5053673;28;20444;-85
2022/10/21 05:47:07;;;;;;;15.80;11.90;;;9.60;99.90;;;;;;5053099;28;20495;-85
2022/10/21 05:49:35;;;;;;;17.73;12.97;;;9.70;99.90;;;;;;5053312;28;20453;-85
2022/10/21 05:52:02;;;;;;;22.23;11.80;;;9.40;99.90;;;;;;5052365;28;20446;-85
2022/10/21 05:54:29;;;;;;;14.17;10.90;;;9.50;99.90;;;;;;5050624;28;20445;-84
2022/10/21 05:56:55;;;;;;;13.17;10.60;;;9.50;99.90;;;;;;5048416;28;20460;-85
2022/10/21 05:59:25;;;;;;;15.53;11.13;;;9.80;99.90;;;;;;5047900;28;20485;-84
2022/10/21 06:01:52;;;;;;;13.90;10.73;;;9.50;99.90;;;;;;5048008;28;20450;-84
2022/10/21 06:04:19;;;;;;;15.63;10.80;;;9.60;99.90;;;;;;5049301;28;20462;-85
2022/10/21 06:06:45;;;;;;;12.97;10.80;;;9.20;99.90;;;;;;5048671;28;20487;-84
2022/10/21 06:09:12;;;;;;;13.20;10.60;;;9.60;99.90;;;;;;5048040;28;20442;-84
2022/10/21 06:11:39;;;;;;;14.87;11.00;;;9.60;99.90;;;;;;5047596;28;20436;-84
2022/10/21 06:14:06;;;;;;;16.27;11.30;;;9.70;99.90;;;;;;5048913;28;20474;-84
2022/10/21 06:16:34;;;;;;;12.03;10.77;;;9.60;99.90;;;;;;5048708;28;20439;-85
2022/10/21 06:19:00;;;;;;;14.73;11.00;;;9.60;99.90;;;;;;5048771;28;20450;-85
2022/10/21 06:21:27;;;;;;;17.97;11.80;;;9.60;99.90;;;;;;5050177;28;20502;-86
2022/10/21 06:23:54;;;;;;;12.60;10.93;;;9.70;99.90;;;;;;5047645;28;20493;-84
2022/10/21 06:26:21;;;;;;;17.33;12.60;;;9.70;99.90;;;;;;5050944;28;20509;-83
2022/10/21 06:28:48;;;;;;;15.63;11.23;;;9.60;99.90;;;;;;5059627;28;20454;-84
2022/10/21 06:31:17;;;;;;;15.23;11.90;;;9.60;99.90;;;;;;5059460;28;20424;-83
2022/10/21 06:33:45;;;;;;;16.83;11.53;;;9.60;99.90;;;;;;5055717;28;20462;-85
2022/10/21 06:36:12;;;;;;;16.73;12.90;;;9.60;99.90;;;;;;5050598;28;20435;-86
2022/10/21 06:38:39;;;;;;;14.30;11.17;;;9.60;99.90;;;;;;5050925;28;20421;-85
2022/10/21 06:41:07;;;;;;;14.60;12.13;;;9.60;99.90;;;;;;5050470;28;20421;-86
2022/10/21 06:43:34;;;;;;;15.33;10.90;;;9.50;99.90;;;;;;5052095;28;20471;-84
2022/10/21 06:46:01;;;;;;;18.73;13.67;;;;;;;;;;5054319;28;20439;-86
2022/10/21 06:48:29;;;;;;;21.40;13.03;;;;;;;;;;5053617;28;20514;-83
2022/10/21 06:51:02;;;;;;;26.50;13.10;;;9.70;99.90;;;;;;5052787;28;20467;-85
2022/10/21 06:53:31;;;;;;;19.17;13.07;;;;;;;;;;5051192;28;21039;-86
2022/10/21 06:56:01;;;;;;;16.70;12.30;;;;;;;;;;5051772;28;20458;-85
2022/10/21 06:58:28;;;;;;;17.90;14.10;;;;;;;;;;5051893;28;20481;-84
2022/10/21 07:00:56;;;;;;;14.80;12.93;;;;;;;;;;5053104;28;20474;-85
2022/10/21 07:03:23;;;;;;;16.00;13.00;;;;;;;;;;5053794;28;20435;-84
2022/10/21 07:05:50;;;;;;;19.20;13.00;;;;;;;;;;5053426;28;20432;-85
2022/10/21 07:08:19;;;;;;;16.43;11.47;;;;;;;;;;5051964;28;20430;-85
2022/10/21 07:10:45;;;;;;;24.60;13.10;;;9.90;99.90;;;;;;5051617;28;20518;-85
2022/10/21 07:13:12;;;;;;;17.93;12.20;;;9.60;99.90;;;;;;5051184;28;20463;-85
2022/10/21 07:15:39;;;;;;;17.50;12.57;;;9.90;99.90;;;;;;5050185;28;20520;-85
2022/10/21 07:18:06;;;;;;;21.87;12.07;;;9.90;99.90;;;;;;5049662;28;20427;-85
2022/10/21 07:20:33;;;;;;;16.20;12.10;;;9.90;99.90;;;;;;5050036;28;20489;-85
2022/10/21 07:23:01;;;;;;;17.00;12.30;;;10.00;99.90;;;;;;5050853;28;20434;-85
2022/10/21 07:25:29;;;;;;;21.30;14.77;;;10.80;99.90;;;;;;5056176;28;20425;-84
2022/10/21 07:27:57;;;;;;;17.00;12.97;;;10.10;99.90;;;;;;5050923;28;20536;-86
2022/10/21 07:30:23;;;;;;;15.70;12.60;;;10.10;99.90;;;;;;5049861;28;20460;-85
2022/10/21 07:32:50;;;;;;;17.93;13.00;;;10.10;99.90;;;;;;5049943;28;20631;-85
2022/10/21 07:35:17;;;;;;;19.73;12.20;;;10.20;99.90;;;;;;5049599;28;20471;-85
2022/10/21 07:37:44;;;;;;;16.63;11.40;;;;;;;;;;5048090;28;20445;-84
2022/10/21 07:40:11;;;;;;;15.20;11.50;;;10.40;99.90;;;;;;5053280;28;20455;-85
2022/10/21 07:42:39;;;;;;;15.80;12.27;;;10.30;99.90;;;;;;5051706;28;20461;-85
2022/10/21 07:45:07;;;;;;;16.40;12.10;;;10.30;99.90;;;;;;5048662;28;20497;-86
2022/10/21 07:47:33;;;;;;;15.90;11.60;;;10.30;99.90;;;;;;5050894;28;20482;-85
2022/10/21 07:50:00;;;;;;;15.93;11.43;;;10.40;99.90;;;;;;5052946;28;20442;-85
2022/10/21 07:52:27;;;;;;;14.67;12.37;;;10.20;99.90;;;;;;5053120;28;20447;-85
2022/10/21 07:54:54;;;;;;;18.80;11.53;;;10.40;99.90;;;;;;5051925;28;20501;-84
2022/10/21 07:57:20;;;;;;;14.93;10.90;;;10.50;99.90;;;;;;5052776;28;20444;-85
2022/10/21 07:59:48;;;;;;;16.73;10.37;;;10.50;99.90;;;;;;5056320;28;20438;-86
2022/10/21 08:02:15;;;;;;;16.70;12.00;;;10.50;99.90;;;;;;5056603;28;20497;-86
2022/10/21 08:04:42;;;;;;;13.87;11.03;;;10.50;99.90;;;;;;5058729;28;20474;-84
2022/10/21 08:07:09;;;;;;;16.60;11.40;;;;;;;;;;5058755;28;20482;-83
2022/10/21 08:09:35;;;;;;;14.90;12.23;;;10.60;99.90;;;;;;5059684;28;20477;-85
2022/10/21 08:12:02;;;;;;;14.50;12.17;;;10.60;99.90;;;;;;5055129;28;20451;-85
2022/10/21 08:14:29;;;;;;;15.87;12.53;;;10.70;99.90;;;;;;5055355;28;20471;-86
2022/10/21 08:16:57;;;;;;;13.27;11.57;;;10.70;99.90;;;;;;5057679;28;20438;-85
2022/10/21 08:19:28;;;;;;;15.60;11.47;;;10.70;99.90;;;;;;5060590;28;20499;-85
2022/10/21 08:21:55;;;;;;;16.43;11.53;;;10.70;99.90;;;;;;5061996;28;20400;-83
2022/10/21 08:24:23;;;;;;;14.53;11.27;;;;;;;;;;5061730;28;20465;-83
2022/10/21 08:26:49;;;;;;;13.50;11.10;;;10.80;99.90;;;;;;5049018;28;20541;-85
2022/10/21 08:29:16;;;;;;;18.57;12.53;;;10.90;99.90;;;;;;5054753;28;20450;-85
2022/10/21 08:31:44;;;;;;;15.80;11.23;;;10.90;99.90;;;;;;5043499;28;20482;-84
2022/10/21 08:34:12;;;;;;;16.40;12.10;;;11.00;99.90;;;;;;5048678;28;20462;-85
2022/10/21 08:36:39;;;;;;;14.67;11.63;;;11.10;99.90;;;;;;5049486;28;20413;-85
2022/10/21 08:39:07;;;;;;;14.00;11.30;;;11.10;99.90;;;;;;5050542;28;20461;-86
2022/10/21 08:41:48;;;;;;;16.57;12.57;;;11.10;99.90;;;;;;5050154;28;20500;-85
2022/10/21 08:44:28;;;;;;;15.27;12.30;;;11.20;99.90;;;;;;5050856;28;20469;-88
2022/10/21 08:47:03;;;;;;;13.93;10.60;;;11.40;99.90;;;;;;5057955;28;20492;-86
2022/10/21 08:49:42;;;;;;;16.00;11.30;;;11.40;99.90;;;;;;5056285;28;20405;-85
2022/10/21 08:52:12;;;;;;;15.70;11.80;;;11.40;99.90;;;;;;5059000;28;20419;-86
2022/10/21 08:54:44;;;;;;;14.73;11.97;;;11.50;99.90;;;;;;5055051;28;20901;-86
2022/10/21 08:57:11;;;;;;;15.23;10.67;;;11.80;99.90;;;;;;5054034;28;20434;-86
2022/10/21 08:59:40;;;;;;;14.97;11.77;;;11.80;99.90;;;;;;5052854;28;20477;-85
2022/10/21 09:02:31;;;;;;;15.37;11.27;;;11.60;99.90;;;;;;5055030;28;20450;-85
2022/10/21 09:05:31;;;;;;;12.53;11.20;;;11.60;99.90;;;;;;5047069;28;20972;-85
2022/10/21 09:08:09;;;;;;;15.50;11.30;;;11.60;99.90;;;;;;5018447;28;20490;-85
2022/10/21 09:10:48;;;;;;;13.90;11.60;;;11.70;99.90;;;;;;5054914;28;20439;-85
2022/10/21 09:13:20;;;;;;;16.57;12.80;;;11.90;99.90;;;;;;5058871;28;20449;-85
2022/10/21 09:16:00;;;;;;;18.27;11.40;;;11.60;99.90;;;;;;5056870;28;20502;-85
2022/10/21 09:18:43;;;;;;;15.07;11.80;;;11.70;99.90;;;;;;5051619;28;20427;-85
2022/10/21 09:21:19;;;;;;;12.80;10.80;;;11.80;99.90;;;;;;5045569;28;20921;-85
2022/10/21 09:24:06;;;;;;;12.03;10.80;;;12.00;99.90;;;;;;5042620;28;20485;-85
2022/10/21 09:26:38;;;;;;;15.87;11.80;;;12.00;99.90;;;;;;5045882;28;20427;-85
2022/10/21 09:29:20;;;;;;;13.17;11.77;;;12.00;99.90;;;;;;5058628;28;20443;-85
2022/10/21 09:31:47;;;;;;;14.30;11.00;;;12.00;99.90;;;;;;5052793;28;20431;-85
2022/10/21 09:34:21;;;;;;;13.57;10.40;;;12.00;99.90;;;;;;5052919;28;20521;-86
2022/10/21 09:36:51;;;;;;;12.73;11.27;;;12.00;99.90;;;;;;5051565;28;20427;-85
2022/10/21 09:39:21;;;;;;;13.97;11.30;;;12.00;99.90;;;;;;5051835;28;20442;-86
2022/10/21 09:41:52;;;;;;;20.60;11.50;;;12.10;99.90;;;;;;5052004;28;20447;-85
2022/10/21 09:44:22;;;;;;;15.57;12.53;;;11.90;99.90;;;;;;5052125;28;20533;-86
2022/10/21 09:46:51;;;;;;;20.30;12.70;;;12.20;99.90;;;;;;5052454;28;20428;-86
2022/10/21 09:49:25;;;;;;;17.83;11.70;;;12.30;99.90;;;;;;5053353;28;20455;-85
2022/10/21 09:51:54;;;;;;;12.70;11.40;;;12.40;99.90;;;;;;5056227;28;20460;-84
2022/10/21 09:54:24;;;;;;;20.70;12.63;;;12.40;99.90;;;;;;5081121;22;20493;-78
2022/10/21 09:56:59;;;;;;;21.43;13.67;;;12.50;99.90;;;;;;5063691;28;20959;-79
2022/10/21 09:59:26;;;;;;;14.10;11.83;;;12.50;99.90;;;;;;5062770;28;20428;-79
2022/10/21 10:01:55;;;;;;;13.90;12.27;;;12.60;99.90;;;;;;5057654;28;20454;-79
2022/10/21 10:04:33;;;;;;;15.00;11.30;;;12.70;99.90;;;;;;5058235;28;20465;-79
2022/10/21 10:07:17;;;;;;;13.83;12.40;;;12.80;99.90;;;;;;5058287;28;20430;-80
2022/10/21 10:09:46;;;;;;;14.17;11.60;;;13.00;99.90;;;;;;5070207;28;20413;-79
2022/10/21 10:12:16;;;;;;;13.93;12.10;;;13.10;99.90;;;;;;5075151;28;20580;-79
2022/10/21 10:14:45;;;;;;;14.43;10.30;;;13.20;99.90;;;;;;5068651;28;20473;-79
2022/10/21 10:17:27;;;;;;;13.90;11.70;;;13.20;99.90;;;;;;5063619;28;20446;-79
2022/10/21 10:20:18;;;;;;;17.67;13.10;;;13.40;99.90;;;;;;5068257;28;20533;-79
2022/10/21 10:22:48;;;;;;;20.10;12.53;;;13.20;99.90;;;;;;5060896;28;20453;-80
2022/10/21 10:25:22;;;;;;;13.80;11.33;;;13.90;99.90;;;;;;5069151;28;20524;-78
2022/10/21 10:27:52;;;;;;;14.07;10.80;;;13.50;99.90;;;;;;5064429;28;20511;-78
2022/10/21 10:30:19;;;;;;;13.10;10.77;;;13.80;99.90;;;;;;5061675;28;20453;-79
2022/10/21 10:32:47;;;;;;;14.60;10.90;;;13.50;99.90;;;;;;5067408;28;20521;-78
2022/10/21 10:35:33;;;;;;;13.03;11.67;;;13.40;99.90;;;;;;5062306;28;20476;-79
2022/10/21 10:38:03;;;;;;;16.93;12.77;;;13.30;99.90;;;;;;5061045;28;20426;-80
2022/10/21 10:40:37;;;;;;;17.10;12.67;;;13.20;99.90;;;;;;5058216;28;20598;-80
2022/10/21 10:43:11;;;;;;;16.50;14.23;;;13.40;99.90;;;;;;5057415;28;20425;-79
2022/10/21 10:45:38;;;;;;;16.03;12.93;;;13.40;99.90;;;;;;5057734;28;20448;-80
2022/10/21 10:48:05;;;;;;;13.90;11.80;;;13.50;99.90;;;;;;5058537;28;20485;-79
2022/10/21 10:50:44;;;;;;;16.10;11.77;;;13.50;99.90;;;;;;5056588;28;20450;-79
2022/10/21 10:53:32;;;;;;;15.37;12.67;;;13.50;99.90;;;;;;5058830;28;20445;-79
2022/10/21 10:56:05;;;;;;;13.20;11.97;;;13.50;99.90;;;;;;5057152;28;20426;-79
2022/10/21 10:58:36;;;;;;;12.73;11.43;;;13.40;99.90;;;;;;5060122;28;20422;-79
2022/10/21 11:01:08;;;;;;;15.40;11.70;;;13.50;99.90;;;;;;5059437;28;20433;-79
2022/10/21 11:03:43;;;;;;;19.30;13.33;;;13.40;99.90;;;;;;5059100;28;20430;-79
2022/10/21 11:06:16;;;;;;;15.30;12.07;;;13.80;99.90;;;;;;5060110;28;20445;-79
2022/10/21 11:08:49;;;;;;;12.90;11.70;;;13.80;99.90;;;;;;5059046;28;20566;-79
2022/10/21 11:11:23;;;;;;;19.77;12.53;;;13.90;99.90;;;;;;5060730;28;20511;-79
2022/10/21 11:13:51;;;;;;;14.20;11.70;;;14.00;99.90;;;;;;5060743;28;20804;-78
2022/10/21 11:16:42;;;;;;;17.17;12.60;;;14.20;99.90;;;;;;5059747;28;20481;-78
2022/10/21 11:19:15;;;;;;;17.90;12.13;;;14.30;99.90;;;;;;5062404;28;20441;-78
2022/10/21 11:21:48;;;;;;;14.13;11.53;;;14.40;99.90;;;;;;5060498;28;20430;-79
2022/10/21 11:24:44;;;;;;;13.90;11.40;;;14.40;99.90;;;;;;5058330;28;20469;-78
2022/10/21 11:27:17;;;;;;;13.67;12.27;;;13.90;99.90;;;;;;5054212;28;20472;-78
2022/10/21 11:29:59;;;;;;;15.20;12.40;;;14.10;99.90;;;;;;5058822;28;20479;-79
2022/10/21 11:32:36;;;;;;;14.40;11.07;;;14.20;1.00;;;;;;5058340;28;20433;-78
2022/10/21 11:35:17;;;;;;;12.53;11.30;;;14.20;1.00;;;;;;5059131;28;20499;-79
2022/10/21 11:37:57;;;;;;;16.10;12.23;;;14.30;1.00;;;;;;5058726;28;20533;-79
2022/10/21 11:40:33;;;;;;;12.10;10.83;;;14.50;1.00;;;;;;5057453;28;20491;-78
2022/10/21 11:43:12;;;;;;;15.00;12.80;;;14.70;1.00;;;;;;5058385;28;20943;-78
2022/10/21 11:45:52;;;;;;;14.13;11.80;;;15.00;99.90;;;;;;5062743;28;20875;-78
2022/10/21 11:48:37;;;;;;;13.40;11.13;;;15.00;99.90;;;;;;5059025;28;20441;-79
2022/10/21 11:51:13;;;;;;;13.97;12.47;;;14.90;1.00;;;;;;5060132;28;20422;-79
2022/10/21 11:53:55;;;;;;;19.90;12.13;;;15.20;99.90;;;;;;5063341;28;20480;-80
2022/10/21 11:56:41;;;;;;;15.23;11.87;;;15.40;99.90;;;;;;5066657;28;20449;-79
2022/10/21 11:59:31;;;;;;;12.13;10.93;;;15.10;99.90;;;;;;5061410;28;20517;-78
2022/10/21 12:02:05;;;;;;;16.07;11.63;;;15.20;1.00;;;;;;5058776;28;20449;-79
2022/10/21 12:04:38;;;;;;;15.43;11.10;;;15.20;99.90;;;;;;5057242;28;20469;-79
2022/10/21 12:07:17;;;;;;;21.13;10.77;;;15.30;1.00;;;;;;5057488;28;20437;-79
2022/10/21 12:09:51;;;;;;;13.10;11.27;;;14.60;1.00;;;;;;5057142;28;20436;-78
2022/10/21 12:12:26;;;;;;;17.30;14.70;;;14.80;99.90;;;;;;5056980;28;20414;-78
2022/10/21 12:14:57;;;;;;;14.77;13.03;;;15.10;1.00;;;;;;5061872;28;20472;-78
2022/10/21 12:17:29;;;;;;;15.40;12.90;;;15.40;1.00;;;;;;5062461;28;20430;-77
2022/10/21 12:19:59;;;;;;;12.67;11.27;;;16.20;99.90;;;;;;5047382;28;20895;-78
2022/10/21 12:22:29;;;;;;;14.67;10.97;;;15.30;99.90;;;;;;5060465;28;20442;-79
2022/10/21 12:25:02;;;;;;;13.23;11.83;;;15.20;99.90;;;;;;5055022;28;21044;-79
2022/10/21 12:27:38;;;;;;;12.67;11.47;;;15.20;99.90;;;;;;5055560;28;20464;-79
2022/10/21 12:30:14;;;;;;;16.30;12.23;;;15.10;1.00;;;;;;5054942;28;20811;-79
2022/10/21 12:32:50;;;;;;;13.77;11.47;;;15.10;99.90;;;;;;5056336;28;20823;-79
2022/10/21 12:35:27;;;;;;;11.70;9.93;;;15.10;99.90;;;;;;5060908;28;20487;-78
2022/10/21 12:38:42;;;;;;;13.93;11.50;;;15.20;1.00;;;;;;5062503;28;20426;-79
2022/10/21 12:41:30;;;;;;;11.67;9.93;;;14.90;99.90;;;;;;5061635;28;20464;-80
2022/10/21 12:44:20;;;;;;;11.67;10.27;;;15.20;1.00;;;;;;5061190;28;21033;-78
2022/10/21 12:46:49;;;;;;;13.40;11.33;;;15.20;1.00;;;;;;5064394;28;20484;-79
2022/10/21 12:49:24;;;;;;;15.57;13.73;;;15.30;1.00;;;;;;5063524;28;20492;-80
2022/10/21 12:52:17;;;;;;;11.57;10.40;;;15.30;1.00;;;;;;5062814;28;20484;-80
2022/10/21 12:54:56;;;;;;;11.93;10.83;;;15.30;1.00;;;;;;5053536;28;20494;-79
2022/10/21 12:57:27;;;;;;;11.97;8.67;;;15.30;1.00;;;;;;5061612;28;20442;-80
2022/10/21 13:00:42;;;;;;;12.53;8.80;;;15.30;99.90;;;;;;5059983;28;20530;-79
2022/10/21 13:03:20;;;;;;;15.30;10.83;;;15.60;99.90;;;;;;5060040;28;20449;-79
2022/10/21 13:06:01;;;;;;;9.93;9.00;;;15.20;1.00;;;;;;5058986;28;20491;-79